Pagrindinis puslapis
METAR-TAF:

METAR-TAF

Oro uostai :

Karlstadas, Švedija

platuma: 59-26-41N, ilguma: 013-20-15E, Aukštis: 107 m

Dabartinis oras

Ataskaita buvo paskelbta 18 minutes, ne 23:50 UTC
Vėjas 4 kt iš Pietų
Temperatūra 15°C
Drėgmė 72%
Slėgis 1018 hPa
Matomumas 10 km arba daugiau

METAR: ESOK 022350Z AUTO 19004KT 9999 OVC038/// 15/10 Q1018

Laikas: 02:08 (00:08 UTC)


TAF: trūkstamas

Orai ataskaitas ir orų prognozės (METAR, TAF).

turimą stotys yra geltonos ir raudonos taškus žemėlapyje.

Perkelti pele per norėdami pamatyti stoties vardą.

Tada spustelėkite, norėdami matyti oro stebėjimo ir prognozės.

Norėdami pakeisti žemėlapį: spustelėkite ant žalios mygtukų su juodo kryžiaus žemyn,; žalią mygtuką su brūkšneliu, jei norite nutolinti; arba žalių rodyklių gretimoms žemėlapius.


METAR-TAF: